sensor_id;sensor_type;location;lat;lon;timestamp;P1;durP1;ratioP1;P2;durP2;ratioP2
6614;SDS011;3343;42.896;23.912;2023-05-29T00:02:08;8.80;;;5.70;;
6614;SDS011;3343;42.896;23.912;2023-05-29T00:04:35;7.87;;;5.63;;
6614;SDS011;3343;42.896;23.912;2023-05-29T00:07:02;7.43;;;5.17;;
6614;SDS011;3343;42.896;23.912;2023-05-29T00:09:30;8.43;;;5.53;;
6614;SDS011;3343;42.896;23.912;2023-05-29T00:11:56;8.23;;;5.87;;
6614;SDS011;3343;42.896;23.912;2023-05-29T00:14:23;8.20;;;5.37;;
6614;SDS011;3343;42.896;23.912;2023-05-29T00:16:50;7.33;;;4.93;;
6614;SDS011;3343;42.896;23.912;2023-05-29T00:19:19;6.73;;;4.97;;
6614;SDS011;3343;42.896;23.912;2023-05-29T00:21:46;9.83;;;5.73;;
6614;SDS011;3343;42.896;23.912;2023-05-29T00:24:13;6.93;;;4.90;;
6614;SDS011;3343;42.896;23.912;2023-05-29T00:26:41;8.30;;;4.87;;
6614;SDS011;3343;42.896;23.912;2023-05-29T00:29:07;5.03;;;3.80;;
6614;SDS011;3343;42.896;23.912;2023-05-29T00:31:34;4.53;;;3.30;;
6614;SDS011;3343;42.896;23.912;2023-05-29T00:34:02;4.97;;;3.50;;
6614;SDS011;3343;42.896;23.912;2023-05-29T00:36:30;5.43;;;3.77;;
6614;SDS011;3343;42.896;23.912;2023-05-29T00:38:57;6.23;;;4.20;;
6614;SDS011;3343;42.896;23.912;2023-05-29T00:41:24;7.40;;;3.83;;
6614;SDS011;3343;42.896;23.912;2023-05-29T00:43:51;7.13;;;4.23;;
6614;SDS011;3343;42.896;23.912;2023-05-29T00:46:18;6.97;;;5.00;;
6614;SDS011;3343;42.896;23.912;2023-05-29T00:48:45;10.57;;;4.70;;
6614;SDS011;3343;42.896;23.912;2023-05-29T00:51:12;7.27;;;5.70;;
6614;SDS011;3343;42.896;23.912;2023-05-29T00:53:43;8.17;;;5.27;;
6614;SDS011;3343;42.896;23.912;2023-05-29T00:56:11;8.30;;;5.70;;
6614;SDS011;3343;42.896;23.912;2023-05-29T00:58:39;11.30;;;5.80;;
6614;SDS011;3343;42.896;23.912;2023-05-29T01:01:06;10.93;;;6.10;;
6614;SDS011;3343;42.896;23.912;2023-05-29T01:03:33;8.97;;;5.47;;
6614;SDS011;3343;42.896;23.912;2023-05-29T01:06:01;9.50;;;5.97;;
6614;SDS011;3343;42.896;23.912;2023-05-29T01:08:28;8.90;;;5.93;;
6614;SDS011;3343;42.896;23.912;2023-05-29T01:10:59;11.83;;;5.90;;
6614;SDS011;3343;42.896;23.912;2023-05-29T01:13:31;8.27;;;5.23;;
6614;SDS011;3343;42.896;23.912;2023-05-29T01:16:04;8.53;;;5.30;;
6614;SDS011;3343;42.896;23.912;2023-05-29T01:18:38;8.10;;;4.87;;
6614;SDS011;3343;42.896;23.912;2023-05-29T01:21:14;8.40;;;5.60;;
6614;SDS011;3343;42.896;23.912;2023-05-29T01:23:53;11.80;;;5.90;;
6614;SDS011;3343;42.896;23.912;2023-05-29T01:26:42;12.43;;;6.30;;
6614;SDS011;3343;42.896;23.912;2023-05-29T01:29:14;9.10;;;6.30;;
6614;SDS011;3343;42.896;23.912;2023-05-29T01:31:45;11.77;;;5.27;;
6614;SDS011;3343;42.896;23.912;2023-05-29T01:34:12;11.80;;;6.53;;
6614;SDS011;3343;42.896;23.912;2023-05-29T01:36:39;9.83;;;6.10;;
6614;SDS011;3343;42.896;23.912;2023-05-29T01:39:06;10.80;;;6.80;;
6614;SDS011;3343;42.896;23.912;2023-05-29T01:41:34;10.70;;;6.30;;
6614;SDS011;3343;42.896;23.912;2023-05-29T01:44:04;10.57;;;6.13;;
6614;SDS011;3343;42.896;23.912;2023-05-29T01:46:33;11.30;;;7.30;;
6614;SDS011;3343;42.896;23.912;2023-05-29T01:49:02;10.13;;;7.13;;
6614;SDS011;3343;42.896;23.912;2023-05-29T01:51:29;10.97;;;6.97;;
6614;SDS011;3343;42.896;23.912;2023-05-29T01:53:57;11.80;;;6.90;;
6614;SDS011;3343;42.896;23.912;2023-05-29T01:56:25;10.77;;;6.93;;
6614;SDS011;3343;42.896;23.912;2023-05-29T01:58:53;9.53;;;6.23;;
6614;SDS011;3343;42.896;23.912;2023-05-29T02:01:22;10.37;;;6.27;;
6614;SDS011;3343;42.896;23.912;2023-05-29T02:03:49;9.97;;;6.47;;
6614;SDS011;3343;42.896;23.912;2023-05-29T02:06:17;11.23;;;7.03;;
6614;SDS011;3343;42.896;23.912;2023-05-29T02:08:44;14.87;;;6.67;;
6614;SDS011;3343;42.896;23.912;2023-05-29T02:11:10;9.27;;;5.93;;
6614;SDS011;3343;42.896;23.912;2023-05-29T02:13:37;10.77;;;6.80;;
6614;SDS011;3343;42.896;23.912;2023-05-29T02:16:05;10.57;;;6.13;;
6614;SDS011;3343;42.896;23.912;2023-05-29T02:18:33;9.97;;;6.17;;
6614;SDS011;3343;42.896;23.912;2023-05-29T02:21:00;15.20;;;6.10;;
6614;SDS011;3343;42.896;23.912;2023-05-29T02:23:27;13.20;;;6.40;;
6614;SDS011;3343;42.896;23.912;2023-05-29T02:25:54;9.97;;;5.60;;
6614;SDS011;3343;42.896;23.912;2023-05-29T02:28:21;8.43;;;5.63;;
6614;SDS011;3343;42.896;23.912;2023-05-29T02:30:48;11.27;;;6.07;;
6614;SDS011;3343;42.896;23.912;2023-05-29T02:33:15;9.97;;;5.70;;
6614;SDS011;3343;42.896;23.912;2023-05-29T02:35:43;12.17;;;5.90;;
6614;SDS011;3343;42.896;23.912;2023-05-29T02:38:10;11.90;;;6.23;;
6614;SDS011;3343;42.896;23.912;2023-05-29T02:40:37;9.57;;;6.73;;
6614;SDS011;3343;42.896;23.912;2023-05-29T02:43:04;7.63;;;5.53;;
6614;SDS011;3343;42.896;23.912;2023-05-29T02:45:31;9.60;;;5.97;;
6614;SDS011;3343;42.896;23.912;2023-05-29T02:47:58;15.30;;;5.83;;
6614;SDS011;3343;42.896;23.912;2023-05-29T02:50:25;12.30;;;6.07;;
6614;SDS011;3343;42.896;23.912;2023-05-29T02:52:54;7.70;;;5.57;;
6614;SDS011;3343;42.896;23.912;2023-05-29T02:55:21;8.17;;;5.03;;
6614;SDS011;3343;42.896;23.912;2023-05-29T02:57:48;8.40;;;6.00;;
6614;SDS011;3343;42.896;23.912;2023-05-29T03:00:18;9.90;;;5.53;;
6614;SDS011;3343;42.896;23.912;2023-05-29T03:02:46;12.13;;;6.03;;
6614;SDS011;3343;42.896;23.912;2023-05-29T03:05:12;8.57;;;5.63;;
6614;SDS011;3343;42.896;23.912;2023-05-29T03:07:40;10.13;;;5.43;;
6614;SDS011;3343;42.896;23.912;2023-05-29T03:10:08;7.40;;;5.40;;
6614;SDS011;3343;42.896;23.912;2023-05-29T03:12:36;8.03;;;5.40;;
6614;SDS011;3343;42.896;23.912;2023-05-29T03:15:05;12.93;;;5.60;;
6614;SDS011;3343;42.896;23.912;2023-05-29T03:17:32;9.10;;;6.00;;
6614;SDS011;3343;42.896;23.912;2023-05-29T03:20:01;12.77;;;5.50;;
6614;SDS011;3343;42.896;23.912;2023-05-29T03:22:31;8.07;;;5.93;;
6614;SDS011;3343;42.896;23.912;2023-05-29T03:24:58;9.63;;;5.70;;
6614;SDS011;3343;42.896;23.912;2023-05-29T03:27:26;10.93;;;6.37;;
6614;SDS011;3343;42.896;23.912;2023-05-29T03:29:54;10.83;;;6.03;;
6614;SDS011;3343;42.896;23.912;2023-05-29T03:32:21;9.17;;;6.43;;
6614;SDS011;3343;42.896;23.912;2023-05-29T03:34:48;12.53;;;7.03;;
6614;SDS011;3343;42.896;23.912;2023-05-29T03:37:15;9.47;;;6.37;;
6614;SDS011;3343;42.896;23.912;2023-05-29T03:39:41;12.67;;;6.77;;
6614;SDS011;3343;42.896;23.912;2023-05-29T03:42:08;11.80;;;6.67;;
6614;SDS011;3343;42.896;23.912;2023-05-29T03:44:36;10.87;;;6.20;;
6614;SDS011;3343;42.896;23.912;2023-05-29T03:47:03;12.23;;;7.00;;
6614;SDS011;3343;42.896;23.912;2023-05-29T03:49:30;7.53;;;5.87;;
6614;SDS011;3343;42.896;23.912;2023-05-29T03:51:57;7.50;;;5.97;;
6614;SDS011;3343;42.896;23.912;2023-05-29T03:54:24;9.17;;;6.53;;
6614;SDS011;3343;42.896;23.912;2023-05-29T03:56:51;10.00;;;6.30;;
6614;SDS011;3343;42.896;23.912;2023-05-29T03:59:18;8.60;;;5.80;;
6614;SDS011;3343;42.896;23.912;2023-05-29T04:01:46;8.63;;;5.50;;
6614;SDS011;3343;42.896;23.912;2023-05-29T04:04:13;9.37;;;5.87;;
6614;SDS011;3343;42.896;23.912;2023-05-29T04:06:40;11.87;;;6.00;;
6614;SDS011;3343;42.896;23.912;2023-05-29T04:09:07;8.13;;;5.53;;
6614;SDS011;3343;42.896;23.912;2023-05-29T04:11:34;9.33;;;5.87;;
6614;SDS011;3343;42.896;23.912;2023-05-29T04:14:01;7.00;;;5.27;;
6614;SDS011;3343;42.896;23.912;2023-05-29T04:16:28;8.53;;;5.07;;
6614;SDS011;3343;42.896;23.912;2023-05-29T04:18:57;9.70;;;5.80;;
6614;SDS011;3343;42.896;23.912;2023-05-29T04:21:23;8.83;;;5.80;;
6614;SDS011;3343;42.896;23.912;2023-05-29T04:23:50;9.00;;;5.80;;
6614;SDS011;3343;42.896;23.912;2023-05-29T04:26:19;10.00;;;6.50;;
6614;SDS011;3343;42.896;23.912;2023-05-29T04:28:50;8.40;;;6.27;;
6614;SDS011;3343;42.896;23.912;2023-05-29T04:31:17;8.57;;;5.83;;
6614;SDS011;3343;42.896;23.912;2023-05-29T04:33:48;8.00;;;5.47;;
6614;SDS011;3343;42.896;23.912;2023-05-29T04:36:16;8.70;;;5.80;;
6614;SDS011;3343;42.896;23.912;2023-05-29T04:38:44;8.80;;;6.00;;
6614;SDS011;3343;42.896;23.912;2023-05-29T04:41:12;7.67;;;5.93;;
6614;SDS011;3343;42.896;23.912;2023-05-29T04:43:39;8.80;;;6.13;;
6614;SDS011;3343;42.896;23.912;2023-05-29T04:46:06;6.97;;;5.10;;
6614;SDS011;3343;42.896;23.912;2023-05-29T04:48:37;7.30;;;5.37;;
6614;SDS011;3343;42.896;23.912;2023-05-29T04:51:05;6.73;;;4.57;;
6614;SDS011;3343;42.896;23.912;2023-05-29T04:53:37;6.87;;;4.57;;
6614;SDS011;3343;42.896;23.912;2023-05-29T04:56:05;8.87;;;5.37;;
6614;SDS011;3343;42.896;23.912;2023-05-29T04:58:32;7.43;;;5.37;;
6614;SDS011;3343;42.896;23.912;2023-05-29T05:00:59;6.83;;;4.43;;
6614;SDS011;3343;42.896;23.912;2023-05-29T05:03:28;8.80;;;5.20;;
6614;SDS011;3343;42.896;23.912;2023-05-29T05:05:56;7.90;;;5.40;;
6614;SDS011;3343;42.896;23.912;2023-05-29T05:08:23;9.00;;;4.90;;
6614;SDS011;3343;42.896;23.912;2023-05-29T05:10:52;6.87;;;4.70;;
6614;SDS011;3343;42.896;23.912;2023-05-29T05:13:18;7.43;;;5.07;;
6614;SDS011;3343;42.896;23.912;2023-05-29T05:15:45;5.87;;;3.60;;
6614;SDS011;3343;42.896;23.912;2023-05-29T05:18:12;5.53;;;3.47;;
6614;SDS011;3343;42.896;23.912;2023-05-29T05:20:39;6.83;;;3.93;;
6614;SDS011;3343;42.896;23.912;2023-05-29T05:23:06;5.20;;;3.70;;
6614;SDS011;3343;42.896;23.912;2023-05-29T05:25:33;6.93;;;4.30;;
6614;SDS011;3343;42.896;23.912;2023-05-29T05:28:02;3.87;;;3.47;;
6614;SDS011;3343;42.896;23.912;2023-05-29T05:30:29;4.63;;;3.83;;
6614;SDS011;3343;42.896;23.912;2023-05-29T05:32:56;5.00;;;3.67;;
6614;SDS011;3343;42.896;23.912;2023-05-29T05:35:23;3.93;;;3.07;;
6614;SDS011;3343;42.896;23.912;2023-05-29T05:37:50;5.07;;;3.40;;
6614;SDS011;3343;42.896;23.912;2023-05-29T05:40:17;4.13;;;3.00;;
6614;SDS011;3343;42.896;23.912;2023-05-29T05:42:44;3.90;;;2.90;;
6614;SDS011;3343;42.896;23.912;2023-05-29T05:45:13;4.03;;;2.93;;
6614;SDS011;3343;42.896;23.912;2023-05-29T05:47:40;4.17;;;3.17;;
6614;SDS011;3343;42.896;23.912;2023-05-29T05:50:07;5.37;;;3.43;;
6614;SDS011;3343;42.896;23.912;2023-05-29T05:52:34;4.82;;;2.90;;
6614;SDS011;3343;42.896;23.912;2023-05-29T05:55:02;3.92;;;2.78;;
6614;SDS011;3343;42.896;23.912;2023-05-29T05:57:29;3.35;;;2.45;;
6614;SDS011;3343;42.896;23.912;2023-05-29T05:59:57;2.35;;;2.08;;
6614;SDS011;3343;42.896;23.912;2023-05-29T06:02:25;2.83;;;2.30;;
6614;SDS011;3343;42.896;23.912;2023-05-29T06:04:52;3.15;;;2.38;;
6614;SDS011;3343;42.896;23.912;2023-05-29T06:07:19;2.47;;;1.92;;
6614;SDS011;3343;42.896;23.912;2023-05-29T06:09:46;3.35;;;2.40;;
6614;SDS011;3343;42.896;23.912;2023-05-29T06:12:13;2.72;;;2.30;;
6614;SDS011;3343;42.896;23.912;2023-05-29T06:14:41;4.30;;;1.83;;
6614;SDS011;3343;42.896;23.912;2023-05-29T06:17:07;1.73;;;1.63;;
6614;SDS011;3343;42.896;23.912;2023-05-29T06:19:36;1.88;;;1.40;;
6614;SDS011;3343;42.896;23.912;2023-05-29T06:22:03;1.40;;;1.30;;
6614;SDS011;3343;42.896;23.912;2023-05-29T06:24:30;1.63;;;1.52;;
6614;SDS011;3343;42.896;23.912;2023-05-29T06:26:57;2.65;;;1.67;;
6614;SDS011;3343;42.896;23.912;2023-05-29T06:29:24;3.70;;;1.77;;
6614;SDS011;3343;42.896;23.912;2023-05-29T06:31:51;1.92;;;1.63;;
6614;SDS011;3343;42.896;23.912;2023-05-29T06:34:18;1.58;;;1.45;;
6614;SDS011;3343;42.896;23.912;2023-05-29T06:36:46;1.50;;;1.20;;
6614;SDS011;3343;42.896;23.912;2023-05-29T06:39:13;1.90;;;1.70;;
6614;SDS011;3343;42.896;23.912;2023-05-29T06:41:43;5.03;;;3.50;;
6614;SDS011;3343;42.896;23.912;2023-05-29T06:44:10;1.60;;;1.50;;
6614;SDS011;3343;42.896;23.912;2023-05-29T06:46:36;1.85;;;1.40;;
6614;SDS011;3343;42.896;23.912;2023-05-29T06:49:04;1.83;;;1.70;;
6614;SDS011;3343;42.896;23.912;2023-05-29T06:51:30;1.63;;;1.38;;
6614;SDS011;3343;42.896;23.912;2023-05-29T06:53:59;1.58;;;1.48;;
6614;SDS011;3343;42.896;23.912;2023-05-29T06:56:26;1.38;;;1.17;;
6614;SDS011;3343;42.896;23.912;2023-05-29T06:58:53;4.72;;;1.65;;
6614;SDS011;3343;42.896;23.912;2023-05-29T07:01:20;1.95;;;1.60;;
6614;SDS011;3343;42.896;23.912;2023-05-29T07:03:51;1.90;;;1.60;;
6614;SDS011;3343;42.896;23.912;2023-05-29T07:06:18;1.55;;;1.45;;
6614;SDS011;3343;42.896;23.912;2023-05-29T07:08:45;1.92;;;1.50;;
6614;SDS011;3343;42.896;23.912;2023-05-29T07:11:13;1.75;;;1.60;;
6614;SDS011;3343;42.896;23.912;2023-05-29T07:13:40;4.63;;;1.65;;
6614;SDS011;3343;42.896;23.912;2023-05-29T07:16:07;2.03;;;1.42;;
6614;SDS011;3343;42.896;23.912;2023-05-29T07:18:34;2.42;;;1.40;;
6614;SDS011;3343;42.896;23.912;2023-05-29T07:21:00;1.60;;;1.50;;
6614;SDS011;3343;42.896;23.912;2023-05-29T07:23:27;1.90;;;1.70;;
6614;SDS011;3343;42.896;23.912;2023-05-29T07:25:54;2.00;;;1.58;;
6614;SDS011;3343;42.896;23.912;2023-05-29T07:28:22;2.05;;;1.55;;
6614;SDS011;3343;42.896;23.912;2023-05-29T07:30:49;1.70;;;1.52;;
6614;SDS011;3343;42.896;23.912;2023-05-29T07:33:17;1.55;;;1.38;;
6614;SDS011;3343;42.896;23.912;2023-05-29T07:35:44;2.42;;;1.88;;
6614;SDS011;3343;42.896;23.912;2023-05-29T07:38:11;1.80;;;1.58;;
6614;SDS011;3343;42.896;23.912;2023-05-29T07:40:38;2.10;;;1.27;;
6614;SDS011;3343;42.896;23.912;2023-05-29T07:43:04;2.75;;;2.00;;
6614;SDS011;3343;42.896;23.912;2023-05-29T07:45:33;3.38;;;2.30;;
6614;SDS011;3343;42.896;23.912;2023-05-29T07:47:59;3.42;;;2.13;;
6614;SDS011;3343;42.896;23.912;2023-05-29T07:50:26;3.60;;;2.00;;
6614;SDS011;3343;42.896;23.912;2023-05-29T07:52:53;2.13;;;1.80;;
6614;SDS011;3343;42.896;23.912;2023-05-29T07:55:22;1.65;;;1.48;;
6614;SDS011;3343;42.896;23.912;2023-05-29T07:57:49;2.30;;;1.90;;
6614;SDS011;3343;42.896;23.912;2023-05-29T08:00:16;3.42;;;2.55;;
6614;SDS011;3343;42.896;23.912;2023-05-29T08:02:44;2.72;;;2.22;;
6614;SDS011;3343;42.896;23.912;2023-05-29T08:05:11;2.35;;;1.77;;
6614;SDS011;3343;42.896;23.912;2023-05-29T08:07:38;4.60;;;2.40;;
6614;SDS011;3343;42.896;23.912;2023-05-29T08:10:07;2.55;;;1.90;;
6614;SDS011;3343;42.896;23.912;2023-05-29T08:12:34;3.63;;;2.55;;
6614;SDS011;3343;42.896;23.912;2023-05-29T08:15:01;2.15;;;1.92;;
6614;SDS011;3343;42.896;23.912;2023-05-29T08:17:28;2.90;;;2.10;;
6614;SDS011;3343;42.896;23.912;2023-05-29T08:19:57;4.43;;;2.55;;
6614;SDS011;3343;42.896;23.912;2023-05-29T08:22:27;1.95;;;1.77;;
6614;SDS011;3343;42.896;23.912;2023-05-29T08:24:55;2.05;;;1.90;;
6614;SDS011;3343;42.896;23.912;2023-05-29T08:27:21;3.05;;;2.10;;
6614;SDS011;3343;42.896;23.912;2023-05-29T08:29:48;2.45;;;2.25;;
6614;SDS011;3343;42.896;23.912;2023-05-29T08:32:15;2.97;;;2.05;;
6614;SDS011;3343;42.896;23.912;2023-05-29T08:34:42;2.53;;;1.83;;
6614;SDS011;3343;42.896;23.912;2023-05-29T08:37:12;3.60;;;2.25;;
6614;SDS011;3343;42.896;23.912;2023-05-29T08:39:39;2.75;;;1.92;;
6614;SDS011;3343;42.896;23.912;2023-05-29T08:42:07;2.92;;;2.45;;
6614;SDS011;3343;42.896;23.912;2023-05-29T08:44:36;2.38;;;2.17;;
6614;SDS011;3343;42.896;23.912;2023-05-29T08:47:06;3.45;;;2.33;;
6614;SDS011;3343;42.896;23.912;2023-05-29T08:49:38;2.75;;;2.28;;
6614;SDS011;3343;42.896;23.912;2023-05-29T08:52:09;5.25;;;2.80;;
6614;SDS011;3343;42.896;23.912;2023-05-29T08:54:41;2.60;;;2.13;;
6614;SDS011;3343;42.896;23.912;2023-05-29T08:57:10;3.72;;;2.47;;
6614;SDS011;3343;42.896;23.912;2023-05-29T08:59:39;3.45;;;2.30;;
6614;SDS011;3343;42.896;23.912;2023-05-29T09:02:09;3.38;;;2.70;;
6614;SDS011;3343;42.896;23.912;2023-05-29T09:04:37;12.52;;;3.58;;
6614;SDS011;3343;42.896;23.912;2023-05-29T09:07:04;2.92;;;2.53;;
6614;SDS011;3343;42.896;23.912;2023-05-29T09:09:35;2.80;;;2.30;;
6614;SDS011;3343;42.896;23.912;2023-05-29T09:12:03;4.18;;;2.80;;
6614;SDS011;3343;42.896;23.912;2023-05-29T09:14:37;2.83;;;2.45;;
6614;SDS011;3343;42.896;23.912;2023-05-29T09:17:07;9.50;;;2.70;;
6614;SDS011;3343;42.896;23.912;2023-05-29T09:19:34;5.43;;;2.95;;
6614;SDS011;3343;42.896;23.912;2023-05-29T09:22:03;5.28;;;2.72;;
6614;SDS011;3343;42.896;23.912;2023-05-29T09:24:32;4.53;;;2.55;;
6614;SDS011;3343;42.896;23.912;2023-05-29T09:27:03;4.88;;;2.63;;
6614;SDS011;3343;42.896;23.912;2023-05-29T09:29:30;2.42;;;2.22;;
6614;SDS011;3343;42.896;23.912;2023-05-29T09:31:58;3.28;;;2.78;;
6614;SDS011;3343;42.896;23.912;2023-05-29T09:34:26;7.85;;;2.90;;
6614;SDS011;3343;42.896;23.912;2023-05-29T09:36:53;3.67;;;2.58;;
6614;SDS011;3343;42.896;23.912;2023-05-29T09:39:33;3.00;;;2.63;;
6614;SDS011;3343;42.896;23.912;2023-05-29T09:42:00;4.43;;;2.90;;
6614;SDS011;3343;42.896;23.912;2023-05-29T09:44:30;4.35;;;2.70;;
6614;SDS011;3343;42.896;23.912;2023-05-29T09:46:58;6.85;;;2.90;;
6614;SDS011;3343;42.896;23.912;2023-05-29T09:49:25;4.68;;;3.40;;
6614;SDS011;3343;42.896;23.912;2023-05-29T09:51:53;7.00;;;3.15;;
6614;SDS011;3343;42.896;23.912;2023-05-29T09:54:20;3.03;;;2.67;;
6614;SDS011;3343;42.896;23.912;2023-05-29T09:56:47;3.80;;;3.03;;
6614;SDS011;3343;42.896;23.912;2023-05-29T09:59:16;3.17;;;2.83;;
6614;SDS011;3343;42.896;23.912;2023-05-29T10:01:43;4.20;;;2.80;;
6614;SDS011;3343;42.896;23.912;2023-05-29T10:04:10;4.05;;;3.10;;
6614;SDS011;3343;42.896;23.912;2023-05-29T10:06:40;4.20;;;3.20;;
6614;SDS011;3343;42.896;23.912;2023-05-29T10:09:10;4.60;;;3.42;;
6614;SDS011;3343;42.896;23.912;2023-05-29T10:11:40;7.45;;;3.15;;
6614;SDS011;3343;42.896;23.912;2023-05-29T10:14:09;6.40;;;3.15;;
6614;SDS011;3343;42.896;23.912;2023-05-29T10:16:43;5.25;;;3.55;;
6614;SDS011;3343;42.896;23.912;2023-05-29T10:19:11;4.05;;;2.83;;
6614;SDS011;3343;42.896;23.912;2023-05-29T10:21:41;4.18;;;3.05;;
6614;SDS011;3343;42.896;23.912;2023-05-29T10:24:09;4.00;;;3.08;;
6614;SDS011;3343;42.896;23.912;2023-05-29T10:26:39;4.00;;;3.13;;
6614;SDS011;3343;42.896;23.912;2023-05-29T10:29:08;5.47;;;3.13;;
6614;SDS011;3343;42.896;23.912;2023-05-29T10:31:40;4.70;;;3.58;;
6614;SDS011;3343;42.896;23.912;2023-05-29T10:34:18;3.53;;;2.92;;
6614;SDS011;3343;42.896;23.912;2023-05-29T10:36:57;4.47;;;3.17;;
6614;SDS011;3343;42.896;23.912;2023-05-29T10:39:31;4.82;;;3.50;;
6614;SDS011;3343;42.896;23.912;2023-05-29T10:41:58;5.95;;;3.60;;
6614;SDS011;3343;42.896;23.912;2023-05-29T10:47:11;3.30;;;3.00;;
6614;SDS011;3343;42.896;23.912;2023-05-29T10:49:39;4.93;;;3.35;;
6614;SDS011;3343;42.896;23.912;2023-05-29T10:52:16;4.13;;;3.22;;
6614;SDS011;3343;42.896;23.912;2023-05-29T10:54:52;3.92;;;3.40;;
6614;SDS011;3343;42.896;23.912;2023-05-29T10:57:21;3.38;;;2.63;;
6614;SDS011;3343;42.896;23.912;2023-05-29T10:59:58;4.90;;;3.47;;
6614;SDS011;3343;42.896;23.912;2023-05-29T11:02:29;3.88;;;2.75;;
6614;SDS011;3343;42.896;23.912;2023-05-29T11:05:06;7.10;;;3.80;;
6614;SDS011;3343;42.896;23.912;2023-05-29T11:07:51;7.65;;;3.58;;
6614;SDS011;3343;42.896;23.912;2023-05-29T11:13:22;5.07;;;3.92;;
6614;SDS011;3343;42.896;23.912;2023-05-29T11:18:42;4.80;;;3.78;;
6614;SDS011;3343;42.896;23.912;2023-05-29T11:21:28;4.88;;;3.53;;
6614;SDS011;3343;42.896;23.912;2023-05-29T11:23:58;4.45;;;3.60;;
6614;SDS011;3343;42.896;23.912;2023-05-29T11:26:28;6.07;;;3.83;;
6614;SDS011;3343;42.896;23.912;2023-05-29T11:28:59;4.97;;;3.50;;
6614;SDS011;3343;42.896;23.912;2023-05-29T11:31:27;4.22;;;3.03;;
6614;SDS011;3343;42.896;23.912;2023-05-29T11:33:58;3.70;;;3.10;;
6614;SDS011;3343;42.896;23.912;2023-05-29T11:36:26;3.65;;;2.92;;
6614;SDS011;3343;42.896;23.912;2023-05-29T11:38:53;9.60;;;3.05;;
6614;SDS011;3343;42.896;23.912;2023-05-29T11:41:20;3.70;;;2.25;;
6614;SDS011;3343;42.896;23.912;2023-05-29T11:43:55;5.20;;;2.80;;
6614;SDS011;3343;42.896;23.912;2023-05-29T11:46:23;3.88;;;2.95;;
6614;SDS011;3343;42.896;23.912;2023-05-29T11:48:51;4.18;;;2.75;;
6614;SDS011;3343;42.896;23.912;2023-05-29T11:51:20;3.33;;;2.80;;
6614;SDS011;3343;42.896;23.912;2023-05-29T11:53:47;3.60;;;3.15;;
6614;SDS011;3343;42.896;23.912;2023-05-29T11:56:14;6.85;;;3.63;;
6614;SDS011;3343;42.896;23.912;2023-05-29T11:58:41;5.05;;;3.42;;
6614;SDS011;3343;42.896;23.912;2023-05-29T12:01:09;4.38;;;3.40;;
6614;SDS011;3343;42.896;23.912;2023-05-29T12:03:39;5.53;;;2.75;;
6614;SDS011;3343;42.896;23.912;2023-05-29T12:06:07;4.18;;;3.05;;
6614;SDS011;3343;42.896;23.912;2023-05-29T12:08:37;4.32;;;3.30;;
6614;SDS011;3343;42.896;23.912;2023-05-29T12:11:05;6.32;;;3.67;;
6614;SDS011;3343;42.896;23.912;2023-05-29T12:13:32;3.92;;;3.25;;
6614;SDS011;3343;42.896;23.912;2023-05-29T12:16:00;2.60;;;2.30;;
6614;SDS011;3343;42.896;23.912;2023-05-29T12:18:29;2.70;;;2.10;;
6614;SDS011;3343;42.896;23.912;2023-05-29T12:20:56;3.88;;;2.47;;
6614;SDS011;3343;42.896;23.912;2023-05-29T12:23:24;3.17;;;2.40;;
6614;SDS011;3343;42.896;23.912;2023-05-29T12:25:53;3.58;;;2.42;;
6614;SDS011;3343;42.896;23.912;2023-05-29T12:28:20;3.03;;;2.50;;
6614;SDS011;3343;42.896;23.912;2023-05-29T12:30:47;2.33;;;2.13;;
6614;SDS011;3343;42.896;23.912;2023-05-29T12:33:25;2.65;;;2.10;;
6614;SDS011;3343;42.896;23.912;2023-05-29T12:35:54;4.32;;;1.98;;
6614;SDS011;3343;42.896;23.912;2023-05-29T12:38:22;1.80;;;1.70;;
6614;SDS011;3343;42.896;23.912;2023-05-29T12:40:49;3.13;;;2.15;;
6614;SDS011;3343;42.896;23.912;2023-05-29T13:00:54;2.35;;;2.08;;
6614;SDS011;3343;42.896;23.912;2023-05-29T13:03:22;5.57;;;2.00;;
6614;SDS011;3343;42.896;23.912;2023-05-29T13:05:49;1.88;;;1.77;;
6614;SDS011;3343;42.896;23.912;2023-05-29T13:08:16;2.17;;;1.58;;
6614;SDS011;3343;42.896;23.912;2023-05-29T13:10:43;1.73;;;1.63;;
6614;SDS011;3343;42.896;23.912;2023-05-29T13:13:10;3.72;;;1.90;;
6614;SDS011;3343;42.896;23.912;2023-05-29T13:15:37;1.90;;;1.80;;
6614;SDS011;3343;42.896;23.912;2023-05-29T13:18:06;1.95;;;1.75;;
6614;SDS011;3343;42.896;23.912;2023-05-29T13:20:33;3.45;;;2.22;;
6614;SDS011;3343;42.896;23.912;2023-05-29T13:23:00;4.38;;;2.10;;
6614;SDS011;3343;42.896;23.912;2023-05-29T13:25:27;2.20;;;1.85;;
6614;SDS011;3343;42.896;23.912;2023-05-29T13:27:54;2.63;;;2.15;;
6614;SDS011;3343;42.896;23.912;2023-05-29T13:30:20;2.63;;;1.90;;
6614;SDS011;3343;42.896;23.912;2023-05-29T13:32:48;2.22;;;1.80;;
6614;SDS011;3343;42.896;23.912;2023-05-29T13:35:17;2.83;;;2.08;;
6614;SDS011;3343;42.896;23.912;2023-05-29T13:37:44;2.08;;;1.88;;
6614;SDS011;3343;42.896;23.912;2023-05-29T13:40:11;2.00;;;1.70;;
6614;SDS011;3343;42.896;23.912;2023-05-29T13:42:39;1.60;;;1.50;;
6614;SDS011;3343;42.896;23.912;2023-05-29T13:45:06;2.17;;;1.55;;
6614;SDS011;3343;42.896;23.912;2023-05-29T13:47:34;1.98;;;1.77;;
6614;SDS011;3343;42.896;23.912;2023-05-29T13:50:02;2.65;;;2.03;;
6614;SDS011;3343;42.896;23.912;2023-05-29T13:52:31;2.70;;;1.70;;
6614;SDS011;3343;42.896;23.912;2023-05-29T13:54:58;1.73;;;1.63;;
6614;SDS011;3343;42.896;23.912;2023-05-29T13:57:31;2.00;;;1.60;;
6614;SDS011;3343;42.896;23.912;2023-05-29T13:59:58;1.80;;;1.60;;
6614;SDS011;3343;42.896;23.912;2023-05-29T14:02:25;2.83;;;1.40;;
6614;SDS011;3343;42.896;23.912;2023-05-29T14:04:52;2.97;;;1.48;;
6614;SDS011;3343;42.896;23.912;2023-05-29T14:07:19;1.92;;;1.40;;
6614;SDS011;3343;42.896;23.912;2023-05-29T14:09:47;1.50;;;1.40;;
6614;SDS011;3343;42.896;23.912;2023-05-29T14:12:14;2.13;;;1.40;;
6614;SDS011;3343;42.896;23.912;2023-05-29T14:14:40;1.42;;;1.33;;
6614;SDS011;3343;42.896;23.912;2023-05-29T14:17:07;2.20;;;1.70;;
6614;SDS011;3343;42.896;23.912;2023-05-29T14:19:34;2.15;;;1.73;;
6614;SDS011;3343;42.896;23.912;2023-05-29T14:22:02;1.73;;;1.40;;
6614;SDS011;3343;42.896;23.912;2023-05-29T14:24:28;2.15;;;1.20;;
6614;SDS011;3343;42.896;23.912;2023-05-29T14:26:57;1.50;;;1.30;;
6614;SDS011;3343;42.896;23.912;2023-05-29T14:29:24;1.40;;;1.30;;
6614;SDS011;3343;42.896;23.912;2023-05-29T14:31:51;2.55;;;1.33;;
6614;SDS011;3343;42.896;23.912;2023-05-29T14:34:19;1.20;;;1.10;;
6614;SDS011;3343;42.896;23.912;2023-05-29T14:36:47;1.35;;;1.25;;
6614;SDS011;3343;42.896;23.912;2023-05-29T14:39:14;1.73;;;1.40;;
6614;SDS011;3343;42.896;23.912;2023-05-29T14:41:40;1.58;;;1.48;;
6614;SDS011;3343;42.896;23.912;2023-05-29T14:44:09;1.63;;;1.52;;
6614;SDS011;3343;42.896;23.912;2023-05-29T14:46:37;1.60;;;1.50;;
6614;SDS011;3343;42.896;23.912;2023-05-29T14:49:04;1.90;;;1.60;;
6614;SDS011;3343;42.896;23.912;2023-05-29T14:51:31;2.70;;;1.88;;
6614;SDS011;3343;42.896;23.912;2023-05-29T14:53:58;3.08;;;2.20;;
6614;SDS011;3343;42.896;23.912;2023-05-29T14:56:25;2.05;;;1.70;;
6614;SDS011;3343;42.896;23.912;2023-05-29T14:58:52;2.30;;;1.70;;
6614;SDS011;3343;42.896;23.912;2023-05-29T15:01:20;2.20;;;2.00;;
6614;SDS011;3343;42.896;23.912;2023-05-29T15:03:47;2.33;;;1.70;;
6614;SDS011;3343;42.896;23.912;2023-05-29T15:06:13;1.45;;;1.30;;
6614;SDS011;3343;42.896;23.912;2023-05-29T15:08:40;2.40;;;1.90;;
6614;SDS011;3343;42.896;23.912;2023-05-29T15:11:08;2.13;;;1.80;;
6614;SDS011;3343;42.896;23.912;2023-05-29T15:13:37;2.22;;;1.67;;
6614;SDS011;3343;42.896;23.912;2023-05-29T15:16:05;2.03;;;1.60;;
6614;SDS011;3343;42.896;23.912;2023-05-29T15:18:33;2.08;;;1.80;;
6614;SDS011;3343;42.896;23.912;2023-05-29T15:33:47;2.03;;;1.77;;
6614;SDS011;3343;42.896;23.912;2023-05-29T15:36:14;6.90;;;2.00;;
6614;SDS011;3343;42.896;23.912;2023-05-29T15:38:44;2.55;;;1.90;;
6614;SDS011;3343;42.896;23.912;2023-05-29T15:41:11;2.55;;;1.90;;
6614;SDS011;3343;42.896;23.912;2023-05-29T15:43:37;1.92;;;1.80;;
6614;SDS011;3343;42.896;23.912;2023-05-29T15:46:04;2.53;;;2.10;;